Home > Products > Valid Products > MTR

000
SAUS46 KPQR 191653
MTRREO
METAR KREO 191652Z AUTO 34006KT 13/M09 A3015 RMK AO1 SLP207
T01331094





000
SAUS46 KPQR 191553
MTRREO
METAR KREO 191552Z AUTO 00000KT 12/M08 A3016 RMK AO1 SLP204
T01171083





000
SAUS46 KPQR 191453
MTRREO
METAR KREO 191452Z AUTO 21003KT 07/M08 A3018 RMK AO1 SLP211
T00721083 51006





000
SAUS46 KPQR 191353
MTRREO
METAR KREO 191352Z AUTO 22006KT 01/M09 A3017 RMK AO1 SLP212
T00061089





000
SAUS46 KPQR 191258
MTRREO
METAR KREO 191252Z AUTO 17004KT 00/M09 A3017 RMK AO1 SLP208
T00001089





000
SAUS46 KPQR 191258
MTRREO
METAR KREO 191252Z AUTO 17004KT 00/M09 A3017 RMK AO1 SLP208
T00001089





000
SAUS46 KPQR 191153
MTRREO
METAR KREO 191152Z AUTO 14008KT 01/M09 A3015 RMK AO1 SLPNO 7////
T00111089 10089 20000 51001





000
SAUS46 KPQR 191053
MTRREO
METAR KREO 191052Z AUTO 15007KT 00/M09 A3016 RMK AO1 SLP214
T00001094





000
SAUS46 KPQR 191053
MTRREO
METAR KREO 191052Z AUTO 15007KT 00/M09 A3016 RMK AO1 SLP214
T00001094





000
SAUS46 KPQR 190953
MTRREO
METAR KREO 190952Z AUTO 00000KT 05/M09 A3015 RMK AO1 SLP210
T00501094





000
SAUS46 KPQR 190853
MTRREO
METAR KREO 190852Z AUTO 02008KT 06/M09 A3015 RMK AO1 SLP217
T00611089 58000





000
SAUS46 KPQR 190853
MTRREO
METAR KREO 190852Z AUTO 02008KT 06/M09 A3015 RMK AO1 SLP217
T00611089 58000





000
SAUS46 KPQR 190753
MTRREO
METAR KREO 190752Z AUTO 36007KT 06/M09 A3016 RMK AO1 SLP223
T00611094 402060011





000
SAUS46 KPQR 190653
MTRREO
METAR KREO 190652Z AUTO 31003KT 05/M11 A3016 RMK AO1 SLP220
T00501111





000
SAUS46 KPQR 190553
MTRREO
METAR KREO 190552Z AUTO 21004KT 04/M12 A3015 RMK AO1 SLP225 6////
T00391122 10206 20039 51013





000
SAUS46 KPQR 190553
MTRREO
METAR KREO 190552Z AUTO 21004KT 04/M12 A3015 RMK AO1 SLP225 6////
T00391122 10206 20039 51013





000
SAUS46 KPQR 190453
MTRREO
METAR KREO 190452Z AUTO 19004KT 06/M12 A3015 RMK AO1 SLP217
T00561122





000
SAUS46 KPQR 190353
MTRREO
METAR KREO 190352Z AUTO 00000KT 10/M12 A3013 RMK AO1 SLP205
T01001117





000
SAUS46 KPQR 190253
MTRREO
METAR KREO 190252Z AUTO 04007KT 13/M14 A3011 RMK AO1 SLP191 6////
T01331139





000
SAUS46 KPQR 190253
MTRREO
METAR KREO 190252Z AUTO 04007KT 13/M14 A3011 RMK AO1 SLP191 6////
T01331139





000
SAUS46 KPQR 190153
MTRREO
METAR KREO 190152Z AUTO 36013KT 19/M16 A3010 RMK AO1 SLP172
T01891161 $





000
SAUS46 KPQR 181553
MTRREO
METAR KREO 181552Z AUTO 36010KT 14/M03 A3020 RMK AO1 SLP208
T01441028 $





000
SAUS46 KPQR 181453
MTRREO
METAR KREO 181452Z AUTO 00000KT 12/M04 A3020 RMK AO1 SLP208
T01171039 53013 $





000
SAUS46 KPQR 181353
MTRREO
METAR KREO 181352Z AUTO VRB03KT 04/M04 A3018 RMK AO1 SLP206
T00441044 $





000
SAUS46 KPQR 181353
MTRREO
METAR KREO 181352Z AUTO VRB03KT 04/M04 A3018 RMK AO1 SLP206
T00441044 $





000
SAUS46 KPQR 181258
MTRREO
METAR KREO 181252Z AUTO 15007KT 02/M05 A3016 RMK AO1 SLP199
T00221050 $





000
SAUS46 KPQR 181258
MTRREO
METAR KREO 181252Z AUTO 15007KT 02/M05 A3016 RMK AO1 SLP199
T00221050 $





000
SAUS46 KPQR 181158
MTRREO
METAR KREO 181152Z AUTO 16004KT 04/M05 A3015 RMK AO1 SLP196 7////
T00391050 10139 20011 53005 $





000
SAUS46 KPQR 181158
MTRREO
METAR KREO 181152Z AUTO 16004KT 04/M05 A3015 RMK AO1 SLP196 7////
T00391050 10139 20011 53005 $





000
SAUS46 KPQR 181058
MTRREO
METAR KREO 181052Z AUTO 12003KT 02/M07 A3014 RMK AO1 SLPNO T00221067
$





000
SAUS46 KPQR 181058
MTRREO
METAR KREO 181052Z AUTO 12003KT 02/M07 A3014 RMK AO1 SLPNO T00221067
$





000
SAUS46 KPQR 180958
MTRREO
METAR KREO 180952Z AUTO VRB04KT 05/M05 A3014 RMK AO1 SLP191
T00501050 $





000
SAUS46 KPQR 180858
MTRREO
METAR KREO 180852Z AUTO 05004KT 06/M06 A3013 RMK AO1 SLP190
T00611056 51013 $





000
SAUS46 KPQR 180858
MTRREO
METAR KREO 180852Z AUTO 05004KT 06/M06 A3013 RMK AO1 SLP190
T00611056 51013 $





000
SAUS46 KPQR 180758
MTRREO
METAR KREO 180752Z AUTO 08005KT 07/M06 A3012 RMK AO1 SLP186
T00671056 402391028 $





000
SAUS46 KPQR 180758
MTRREO
METAR KREO 180752Z AUTO 08005KT 07/M06 A3012 RMK AO1 SLP186
T00671056 402391028 $





000
SAUS46 KPQR 180658
MTRREO
METAR KREO 180652Z AUTO 01005KT 11/M05 A3011 RMK AO1 SLP178
T01061050 $





000
SAUS46 KPQR 180558
MTRREO
METAR KREO 180552Z AUTO 36010KT 14/M06 A3009 RMK AO1 SLP171
T01391061 10239 20094 51015 $





000
SAUS46 KPQR 180558
MTRREO
METAR KREO 180552Z AUTO 36010KT 14/M06 A3009 RMK AO1 SLP171
T01391061 10239 20094 51015 $





000
SAUS46 KPQR 180458
MTRREO
METAR KREO 180452Z AUTO 30007KT 11/M08 A3009 RMK AO1 SLP178
T01111083 $





000
SAUS46 KPQR 180358
MTRREO
METAR KREO 180352Z AUTO 30003KT 14/M08 A3006 RMK AO1 SLP170
T01441083 $





000
SAUS46 KPQR 180358
MTRREO
METAR KREO 180352Z AUTO 30003KT 14/M08 A3006 RMK AO1 SLP170
T01441083 $





000
SAUS46 KPQR 180258
MTRREO
METAR KREO 180252Z AUTO 33006KT 17/M08 A3004 RMK AO1 SLP165
T01671083 55003 $





000
SAUS46 KPQR 180158
MTRREO
METAR KREO 180152Z AUTO 32008KT 22/M09 A3004 RMK AO1 SLP165
T02171089 $





000
SAUS46 KPQR 180158
MTRREO
METAR KREO 180152Z AUTO 32008KT 22/M09 A3004 RMK AO1 SLP165
T02171089 $





000
SAUS46 KPQR 180058
MTRREO
METAR KREO 180052Z AUTO 31008KT 23/M08 A3004 RMK AO1 SLP163
T02331083 $





000
SAUS46 KPQR 172358
MTRREO
METAR KREO 172352Z AUTO VRB04KT 23/M09 A3005 RMK AO1 SLP167 6////
T02281089 10239 20106 $





000
SAUS46 KPQR 172358
MTRREO
METAR KREO 172352Z AUTO VRB04KT 23/M09 A3005 RMK AO1 SLP167 6////
T02281089 10239 20106 $





000
SAUS46 KPQR 172058
MTRREO
METAR KREO 172052Z AUTO VRB03KT 21/M09 A3012 RMK AO1 SLP189
T02111094 $





000
SAUS46 KPQR 172058
MTRREO
METAR KREO 172052Z AUTO VRB03KT 21/M09 A3012 RMK AO1 SLP189
T02111094 $





000
SAUS46 KPQR 171958
MTRREO
METAR KREO 171952Z AUTO 23008KT 21/M09 A3014 RMK AO1 SLP198
T02111094





000
SAUS46 KPQR 171958
MTRREO
METAR KREO 171952Z AUTO 23008KT 21/M09 A3014 RMK AO1 SLP198
T02111094





000
SAUS46 KPQR 171858
MTRREO
METAR KREO 171852Z AUTO VRB05KT 19/M09 A3017 RMK AO1 SLP209
T01891089





000
SAUS46 KPQR 171758
MTRREO
METAR KREO 171752Z AUTO 00000KT 16/M08 A3018 RMK AO1 SLP216
T01611083 10167 21028 58008





000
SAUS46 KPQR 171758
MTRREO
METAR KREO 171752Z AUTO 00000KT 16/M08 A3018 RMK AO1 SLP216
T01611083 10167 21028 58008





000
SAUS46 KPQR 171658
MTRREO
METAR KREO 171652Z AUTO 00000KT 14/M11 A3019 RMK AO1 SLP222
T01391111





000
SAUS46 KPQR 171658
MTRREO
METAR KREO 171652Z AUTO 00000KT 14/M11 A3019 RMK AO1 SLP222
T01391111





000
SAUS46 KPQR 171558
MTRREO
METAR KREO 171552Z AUTO 00000KT 11/M11 A3020 RMK AO1 SLP224
T01061106





000
SAUS46 KPQR 171558
MTRREO
METAR KREO 171552Z AUTO 00000KT 11/M11 A3020 RMK AO1 SLP224
T01061106





000
SAUS46 KPQR 171458
MTRREO
METAR KREO 171452Z AUTO 00000KT 06/M11 A3020 RMK AO1 SLP227
T00611106 53004





000
SAUS46 KPQR 171258
MTRREO
METAR KREO 171252Z AUTO 17007KT M03/M13 A3019 RMK AO1 SLP225
T10281128





000
SAUS46 KPQR 171258
MTRREO
METAR KREO 171252Z AUTO 17007KT M03/M13 A3019 RMK AO1 SLP225
T10281128





000
SAUS46 KPQR 171153
MTRREO
METAR KREO 171152Z AUTO 20006KT M03/M13 A3019 RMK AO1 SLP224
T10281128 10028 21028 55002





000
SAUS46 KPQR 171053
MTRREO
METAR KREO 171052Z AUTO 15008KT 01/M11 A3019 RMK AO1 SLP220
T00061106





000
SAUS46 KPQR 171053
MTRREO
METAR KREO 171052Z AUTO 15008KT 01/M11 A3019 RMK AO1 SLP220
T00061106





000
SAUS46 KPQR 170953
MTRREO
METAR KREO 170952Z AUTO 16007KT 00/M11 A3019 RMK AO1 SLP223
T00001111





000
SAUS46 KPQR 170853
MTRREO
METAR KREO 170852Z AUTO 14008KT 01/M11 A3020 RMK AO1 SLP227
T00061111 50001





000
SAUS46 KPQR 170753
MTRREO
METAR KREO 170752Z AUTO 14009KT 01/M12 A3021 RMK AO1 SLP231
T00061117 401831067





000
SAUS46 KPQR 170653
MTRREO
METAR KREO 170652Z AUTO 16009KT 02/M12 A3020 RMK AO1 SLP231
T00221117





000
SAUS46 KPQR 170553
MTRREO
METAR KREO 170552Z AUTO 18005KT 02/M13 A3020 RMK AO1 SLP231
T00221128 10183 20017 51012





000
SAUS46 KPQR 170553
MTRREO
METAR KREO 170552Z AUTO 18005KT 02/M13 A3020 RMK AO1 SLP231
T00221128 10183 20017 51012





000
SAUS46 KPQR 170453
MTRREO
METAR KREO 170452Z AUTO 00000KT 02/M14 A3019 RMK AO1 SLP230
T00221139





000
SAUS46 KPQR 170353
MTRREO
METAR KREO 170352Z AUTO 07008KT 07/M13 A3018 RMK AO1 SLP222
T00671128





000
SAUS46 KPQR 170253
MTRREO
METAR KREO 170252Z AUTO 07006KT 11/M12 A3016 RMK AO1 SLP215
T01061117 53003





000
SAUS46 KPQR 170253
MTRREO
METAR KREO 170252Z AUTO 07006KT 11/M12 A3016 RMK AO1 SLP215
T01061117 53003





000
SAUS46 KPQR 170153
MTRREO
METAR KREO 170152Z AUTO 03009KT 17/M13 A3014 RMK AO1 SLP209
T01671133





000
SAUS46 KPQR 170153
MTRREO
METAR KREO 170152Z AUTO 03009KT 17/M13 A3014 RMK AO1 SLP209
T01671133





000
SAUS46 KPQR 170053
MTRREO
METAR KREO 170052Z AUTO 35007KT 18/M14 A3014 RMK AO1 SLP212
T01781144 $





000
SAUS46 KPQR 170053
MTRREO
METAR KREO 170052Z AUTO 35007KT 18/M14 A3014 RMK AO1 SLP212
T01781144 $





000
SAUS46 KPQR 162353
MTRREO
METAR KREO 162352Z AUTO 35009G17KT 18/M13 A3015 RMK AO1 SLP212
T01781133 10183 20100 $





000
SAUS46 KPQR 162353
MTRREO
METAR KREO 162352Z AUTO 35009G17KT 18/M13 A3015 RMK AO1 SLP212
T01781133 10183 20100 $





000
SAUS46 KPQR 162253
MTRREO
METAR KREO 162252Z AUTO VRB05KT 17/M14 A3016 RMK AO1 SLP216
T01721139 $





000
SAUS46 KPQR 162253
MTRREO
METAR KREO 162252Z AUTO VRB05KT 17/M14 A3016 RMK AO1 SLP216
T01721139 $





000
SAUS46 KPQR 162153
MTRREO
METAR KREO 162152Z AUTO 02011KT 17/M13 A3018 RMK AO1 SLP223
T01671128 $





000
SAUS46 KPQR 162053
MTRREO
METAR KREO 162052Z AUTO VRB06KT 15/M12 A3020 RMK AO1 SLP233
T01501122 58018





000
SAUS46 KPQR 162053
MTRREO
METAR KREO 162052Z AUTO VRB06KT 15/M12 A3020 RMK AO1 SLP233
T01501122 58018





000
SAUS46 KPQR 161953
MTRREO
METAR KREO 161952Z AUTO 02008G14KT 340V050 13/M12 A3022 RMK AO1
SLP242 T01331122





000
SAUS46 KPQR 161953
MTRREO
METAR KREO 161952Z AUTO 02008G14KT 340V050 13/M12 A3022 RMK AO1
SLP242 T01331122





000
SAUS46 KPQR 161853
MTRREO
METAR KREO 161852Z AUTO 01009G17KT 12/M12 A3025 RMK AO1 SLP248
T01221122





000
SAUS46 KPQR 161753
MTRREO
METAR KREO 161752Z AUTO VRB04KT 10/M12 A3026 RMK AO1 SLP259
T01001117 10100 21067 58002





000
SAUS46 KPQR 161753
MTRREO
METAR KREO 161752Z AUTO VRB04KT 10/M12 A3026 RMK AO1 SLP259
T01001117 10100 21067 58002





    US Dept of Commerce
    National Oceanic and Atmospheric Administration
    National Weather Service
    1325 East West Highway
    Silver Spring, MD 20910
    Page Author: NWS Internet Services Team
Disclaimer
Information Quality
Credits
Glossary
Privacy Policy
Freedom of Information Act (FOIA)
About Us
Career Opportunities